Página principal
METAR-TAF:

METAR-TAF

Aeroportos :

Payam

Karaj, Irão

latitude: 35-46-34N, longitude: 050-49-36E, altura: 1271 m

Observação actual do tempo

O boletim foi feito há 2 horas e 14 minutos, às 21:00 UTC
Vento 14 kt de oes-sudoeste
Temperatura 2°C
Humidade 80%
Pressão 1021 hPa
Visibilidade 10 km ou mais
sem nuvens abaixo de 1500 metros e sem cumulonimbus

METAR: OIIP 152100Z 25014KT CAVOK 02/M01 Q1020 A3015

Hora: 02:44 (23:14 UTC)


TAF: em falta

Observações e previsões do tempo de mais de 4000 aeroportos (mensagens METAR e TAF).

As estações disponíveis são os pontos amarelos e vermelhos sobre o mapa.

Mova o rato sobre o mapa para ver o nome da estação.

Depois clique no ponto para visualizar as observações e previsões meteorológicas.

Para alterar o mapa : clique nos botões verdes com uma cruz preta para aumentar o zoom; no botão verde com uma pitada de zoom; ou nas setas verdes para mapas adjacentes.


METAR-TAF: